Portada
METAR-TAF:

METAR-TAF

Aeroports :

Wajima, Japó

latitud: 37-17-36N, longitud: 136-57-44E, altitud: 219 m

Observació

L'informe es va fer fa 4 hores i 7 minuts, a les 10:00 UTC
Vent 4 kt del Oest/Nord-Oest, variant entre Oest/Sud-Oest i Nord/Nord-Oest
Temperatura 12°C
Humitat 94%
Pressió 1011 hPa
Visibilitat: 4000 m
Escasses núvols a una alçada de 300 ft
Núvols disperses a una alçada de 500 ft
Cel ennuvolat a una alçada de 2000 ft
xàfecs de pluja, boirina

METAR: RJNW 181000Z 29004KT 250V330 4000 SHRA BR FEW003 SCT005 BKN020 12/11 Q1011

Hora: 23:07 (14:07 UTC)


TAF: manca

Observacions i pronòstics meteorològics de més de 4000 aeroports (METAR i TAF).

Les estacions disponibles són els punts grocs i vermells al mapa.

Posi el ratolí al punt desitjat per veure el nom de l'estació.

Feu clic per veure les observacions i els pronòstics meteorològics.

Per canviar el mapa: feu clic els botons verds amb una creu de color negre per apropar; al botó verd amb un guió per allunyar la imatge; o en les fletxes verdes per a mapes adjacents.


METAR-TAF: